sensor_id;sensor_type;location;lat;lon;timestamp;temperature;humidity
56725;DHT22;42608;52.776;6.968;2024-01-30T00:01:51;5.90;99.90
56725;DHT22;42608;52.776;6.968;2024-01-30T00:04:17;5.90;99.90
56725;DHT22;42608;52.776;6.968;2024-01-30T00:06:48;5.90;99.90
56725;DHT22;42608;52.776;6.968;2024-01-30T00:09:13;5.90;99.90
56725;DHT22;42608;52.776;6.968;2024-01-30T00:11:39;5.80;99.90
56725;DHT22;42608;52.776;6.968;2024-01-30T00:14:05;5.80;99.90
56725;DHT22;42608;52.776;6.968;2024-01-30T00:16:30;5.80;99.90
56725;DHT22;42608;52.776;6.968;2024-01-30T00:18:56;5.80;99.90
56725;DHT22;42608;52.776;6.968;2024-01-30T00:21:22;5.80;99.90
56725;DHT22;42608;52.776;6.968;2024-01-30T00:23:50;5.80;99.90
56725;DHT22;42608;52.776;6.968;2024-01-30T00:26:16;5.80;99.90
56725;DHT22;42608;52.776;6.968;2024-01-30T00:28:42;5.70;99.90
56725;DHT22;42608;52.776;6.968;2024-01-30T00:31:10;5.70;99.90
56725;DHT22;42608;52.776;6.968;2024-01-30T00:33:42;5.70;99.90
56725;DHT22;42608;52.776;6.968;2024-01-30T00:36:08;5.70;99.90
56725;DHT22;42608;52.776;6.968;2024-01-30T00:38:34;5.70;99.90
56725;DHT22;42608;52.776;6.968;2024-01-30T00:40:59;5.70;99.90
56725;DHT22;42608;52.776;6.968;2024-01-30T00:43:25;5.70;99.90
56725;DHT22;42608;52.776;6.968;2024-01-30T00:45:51;5.70;99.90
56725;DHT22;42608;52.776;6.968;2024-01-30T00:48:19;5.70;99.90
56725;DHT22;42608;52.776;6.968;2024-01-30T00:50:46;5.70;99.90
56725;DHT22;42608;52.776;6.968;2024-01-30T00:53:12;5.80;99.90
56725;DHT22;42608;52.776;6.968;2024-01-30T00:55:38;5.80;99.90
56725;DHT22;42608;52.776;6.968;2024-01-30T00:58:03;5.70;99.90
56725;DHT22;42608;52.776;6.968;2024-01-30T01:00:29;5.70;99.90
56725;DHT22;42608;52.776;6.968;2024-01-30T01:02:55;5.70;99.90
56725;DHT22;42608;52.776;6.968;2024-01-30T01:05:20;5.80;99.90
56725;DHT22;42608;52.776;6.968;2024-01-30T01:07:48;5.80;99.90
56725;DHT22;42608;52.776;6.968;2024-01-30T01:10:14;5.70;99.90
56725;DHT22;42608;52.776;6.968;2024-01-30T01:12:41;5.70;99.90
56725;DHT22;42608;52.776;6.968;2024-01-30T01:15:07;5.80;99.90
56725;DHT22;42608;52.776;6.968;2024-01-30T01:17:38;5.80;99.90
56725;DHT22;42608;52.776;6.968;2024-01-30T01:20:04;5.70;99.90
56725;DHT22;42608;52.776;6.968;2024-01-30T01:22:33;5.80;99.90
56725;DHT22;42608;52.776;6.968;2024-01-30T01:24:59;5.70;99.90
56725;DHT22;42608;52.776;6.968;2024-01-30T01:27:27;5.80;99.90
56725;DHT22;42608;52.776;6.968;2024-01-30T01:29:53;5.70;99.90
56725;DHT22;42608;52.776;6.968;2024-01-30T01:32:19;5.70;99.90
56725;DHT22;42608;52.776;6.968;2024-01-30T01:34:44;5.80;99.90
56725;DHT22;42608;52.776;6.968;2024-01-30T01:37:10;5.70;99.90
56725;DHT22;42608;52.776;6.968;2024-01-30T01:39:36;5.70;99.90
56725;DHT22;42608;52.776;6.968;2024-01-30T01:42:04;5.70;99.90
56725;DHT22;42608;52.776;6.968;2024-01-30T01:44:30;5.70;99.90
56725;DHT22;42608;52.776;6.968;2024-01-30T01:46:55;5.70;99.90
56725;DHT22;42608;52.776;6.968;2024-01-30T01:49:23;5.70;99.90
56725;DHT22;42608;52.776;6.968;2024-01-30T01:51:49;5.70;99.90
56725;DHT22;42608;52.776;6.968;2024-01-30T01:54:19;5.70;99.90
56725;DHT22;42608;52.776;6.968;2024-01-30T01:56:48;5.70;99.90
56725;DHT22;42608;52.776;6.968;2024-01-30T01:59:13;5.70;99.90
56725;DHT22;42608;52.776;6.968;2024-01-30T02:01:39;5.70;99.90
56725;DHT22;42608;52.776;6.968;2024-01-30T02:04:08;5.70;99.90
56725;DHT22;42608;52.776;6.968;2024-01-30T02:06:34;5.70;99.90
56725;DHT22;42608;52.776;6.968;2024-01-30T02:09:00;5.70;99.90
56725;DHT22;42608;52.776;6.968;2024-01-30T02:11:25;5.70;99.90
56725;DHT22;42608;52.776;6.968;2024-01-30T02:13:54;5.70;99.90
56725;DHT22;42608;52.776;6.968;2024-01-30T02:16:19;5.70;99.90
56725;DHT22;42608;52.776;6.968;2024-01-30T02:18:45;5.70;99.90
56725;DHT22;42608;52.776;6.968;2024-01-30T02:21:15;5.70;99.90
56725;DHT22;42608;52.776;6.968;2024-01-30T02:23:44;5.70;99.90
56725;DHT22;42608;52.776;6.968;2024-01-30T02:26:10;5.70;99.90
56725;DHT22;42608;52.776;6.968;2024-01-30T02:28:37;5.70;99.90
56725;DHT22;42608;52.776;6.968;2024-01-30T02:31:08;5.70;99.90
56725;DHT22;42608;52.776;6.968;2024-01-30T02:33:34;5.60;99.90
56725;DHT22;42608;52.776;6.968;2024-01-30T02:35:59;5.60;99.90
56725;DHT22;42608;52.776;6.968;2024-01-30T02:38:25;5.60;99.90
56725;DHT22;42608;52.776;6.968;2024-01-30T02:40:52;5.60;99.90
56725;DHT22;42608;52.776;6.968;2024-01-30T02:43:18;5.60;99.90
56725;DHT22;42608;52.776;6.968;2024-01-30T02:45:43;5.60;99.90
56725;DHT22;42608;52.776;6.968;2024-01-30T02:48:09;5.60;99.90
56725;DHT22;42608;52.776;6.968;2024-01-30T02:50:34;5.60;99.90
56725;DHT22;42608;52.776;6.968;2024-01-30T02:53:00;5.60;99.90
56725;DHT22;42608;52.776;6.968;2024-01-30T02:55:26;5.60;99.90
56725;DHT22;42608;52.776;6.968;2024-01-30T02:57:51;5.60;99.90
56725;DHT22;42608;52.776;6.968;2024-01-30T03:00:17;5.60;99.90
56725;DHT22;42608;52.776;6.968;2024-01-30T03:02:43;5.60;99.90
56725;DHT22;42608;52.776;6.968;2024-01-30T03:05:11;5.60;99.90
56725;DHT22;42608;52.776;6.968;2024-01-30T03:07:38;5.60;99.90
56725;DHT22;42608;52.776;6.968;2024-01-30T03:10:04;5.60;99.90
56725;DHT22;42608;52.776;6.968;2024-01-30T03:12:30;5.60;99.90
56725;DHT22;42608;52.776;6.968;2024-01-30T03:14:55;5.60;99.90
56725;DHT22;42608;52.776;6.968;2024-01-30T03:17:21;5.60;99.90
56725;DHT22;42608;52.776;6.968;2024-01-30T03:19:46;5.60;99.90
56725;DHT22;42608;52.776;6.968;2024-01-30T03:22:12;5.60;99.90
56725;DHT22;42608;52.776;6.968;2024-01-30T03:24:38;5.60;99.90
56725;DHT22;42608;52.776;6.968;2024-01-30T03:27:03;5.60;99.90
56725;DHT22;42608;52.776;6.968;2024-01-30T03:29:29;5.60;99.90
56725;DHT22;42608;52.776;6.968;2024-01-30T03:31:54;5.60;99.90
56725;DHT22;42608;52.776;6.968;2024-01-30T03:34:20;5.60;99.90
56725;DHT22;42608;52.776;6.968;2024-01-30T03:36:48;5.60;99.90
56725;DHT22;42608;52.776;6.968;2024-01-30T03:39:14;5.70;99.90
56725;DHT22;42608;52.776;6.968;2024-01-30T03:41:42;5.70;99.90
56725;DHT22;42608;52.776;6.968;2024-01-30T03:44:07;5.70;99.90
56725;DHT22;42608;52.776;6.968;2024-01-30T03:46:38;5.70;99.90
56725;DHT22;42608;52.776;6.968;2024-01-30T03:49:04;5.80;99.90
56725;DHT22;42608;52.776;6.968;2024-01-30T03:51:29;5.80;99.90
56725;DHT22;42608;52.776;6.968;2024-01-30T03:53:55;5.80;99.90
56725;DHT22;42608;52.776;6.968;2024-01-30T03:56:20;5.80;99.90
56725;DHT22;42608;52.776;6.968;2024-01-30T03:58:46;5.90;99.90
56725;DHT22;42608;52.776;6.968;2024-01-30T04:01:14;5.90;99.90
56725;DHT22;42608;52.776;6.968;2024-01-30T04:03:40;5.90;99.90
56725;DHT22;42608;52.776;6.968;2024-01-30T04:06:06;5.90;99.90
56725;DHT22;42608;52.776;6.968;2024-01-30T04:08:31;6.00;99.90
56725;DHT22;42608;52.776;6.968;2024-01-30T04:10:57;6.00;99.90
56725;DHT22;42608;52.776;6.968;2024-01-30T04:13:23;6.00;99.90
56725;DHT22;42608;52.776;6.968;2024-01-30T04:15:48;6.10;99.90
56725;DHT22;42608;52.776;6.968;2024-01-30T04:18:14;6.10;99.90
56725;DHT22;42608;52.776;6.968;2024-01-30T04:20:40;6.10;99.90
56725;DHT22;42608;52.776;6.968;2024-01-30T04:23:05;6.20;99.90
56725;DHT22;42608;52.776;6.968;2024-01-30T04:25:31;6.20;99.90
56725;DHT22;42608;52.776;6.968;2024-01-30T04:27:56;6.20;99.90
56725;DHT22;42608;52.776;6.968;2024-01-30T04:30:22;6.20;99.90
56725;DHT22;42608;52.776;6.968;2024-01-30T04:32:47;6.20;99.90
56725;DHT22;42608;52.776;6.968;2024-01-30T04:35:13;6.20;99.90
56725;DHT22;42608;52.776;6.968;2024-01-30T04:37:38;6.20;99.90
56725;DHT22;42608;52.776;6.968;2024-01-30T04:40:04;6.30;99.90
56725;DHT22;42608;52.776;6.968;2024-01-30T04:42:30;6.30;99.90
56725;DHT22;42608;52.776;6.968;2024-01-30T04:44:56;6.30;99.90
56725;DHT22;42608;52.776;6.968;2024-01-30T04:47:21;6.30;99.90
56725;DHT22;42608;52.776;6.968;2024-01-30T04:49:47;6.30;99.90
56725;DHT22;42608;52.776;6.968;2024-01-30T04:52:12;6.30;99.90
56725;DHT22;42608;52.776;6.968;2024-01-30T04:54:38;6.30;99.90
56725;DHT22;42608;52.776;6.968;2024-01-30T04:57:06;6.30;99.90
56725;DHT22;42608;52.776;6.968;2024-01-30T04:59:35;6.30;99.90
56725;DHT22;42608;52.776;6.968;2024-01-30T05:02:00;6.30;99.90
56725;DHT22;42608;52.776;6.968;2024-01-30T05:04:26;6.30;99.90
56725;DHT22;42608;52.776;6.968;2024-01-30T05:06:51;6.30;99.90
56725;DHT22;42608;52.776;6.968;2024-01-30T05:09:17;6.30;99.90
56725;DHT22;42608;52.776;6.968;2024-01-30T05:11:42;6.30;99.90
56725;DHT22;42608;52.776;6.968;2024-01-30T05:14:08;6.30;99.90
56725;DHT22;42608;52.776;6.968;2024-01-30T05:16:34;6.30;99.90
56725;DHT22;42608;52.776;6.968;2024-01-30T05:18:59;6.30;99.90
56725;DHT22;42608;52.776;6.968;2024-01-30T05:21:25;6.30;99.90
56725;DHT22;42608;52.776;6.968;2024-01-30T05:23:51;6.30;99.90
56725;DHT22;42608;52.776;6.968;2024-01-30T05:26:17;6.30;99.90
56725;DHT22;42608;52.776;6.968;2024-01-30T05:28:43;6.30;99.90
56725;DHT22;42608;52.776;6.968;2024-01-30T05:31:12;6.30;99.90
56725;DHT22;42608;52.776;6.968;2024-01-30T05:33:37;6.30;99.90
56725;DHT22;42608;52.776;6.968;2024-01-30T05:36:03;6.30;99.90
56725;DHT22;42608;52.776;6.968;2024-01-30T05:38:29;6.30;99.90
56725;DHT22;42608;52.776;6.968;2024-01-30T05:40:57;6.30;99.90
56725;DHT22;42608;52.776;6.968;2024-01-30T05:43:24;6.30;99.90
56725;DHT22;42608;52.776;6.968;2024-01-30T05:45:49;6.40;99.90
56725;DHT22;42608;52.776;6.968;2024-01-30T05:48:15;6.30;99.90
56725;DHT22;42608;52.776;6.968;2024-01-30T05:50:41;6.40;99.90
56725;DHT22;42608;52.776;6.968;2024-01-30T05:53:10;6.40;99.90
56725;DHT22;42608;52.776;6.968;2024-01-30T05:55:36;6.40;99.90
56725;DHT22;42608;52.776;6.968;2024-01-30T05:58:01;6.40;99.90
56725;DHT22;42608;52.776;6.968;2024-01-30T06:00:27;6.40;99.90
56725;DHT22;42608;52.776;6.968;2024-01-30T06:02:52;6.40;99.90
56725;DHT22;42608;52.776;6.968;2024-01-30T06:05:18;6.40;99.90
56725;DHT22;42608;52.776;6.968;2024-01-30T06:07:43;6.40;99.90
56725;DHT22;42608;52.776;6.968;2024-01-30T06:10:09;6.40;99.90
56725;DHT22;42608;52.776;6.968;2024-01-30T06:12:35;6.50;99.90
56725;DHT22;42608;52.776;6.968;2024-01-30T06:15:01;6.50;99.90
56725;DHT22;42608;52.776;6.968;2024-01-30T06:17:26;6.50;99.90
56725;DHT22;42608;52.776;6.968;2024-01-30T06:19:52;6.50;99.90
56725;DHT22;42608;52.776;6.968;2024-01-30T06:22:17;6.50;99.90
56725;DHT22;42608;52.776;6.968;2024-01-30T06:24:43;6.60;99.90
56725;DHT22;42608;52.776;6.968;2024-01-30T06:27:10;6.60;99.90
56725;DHT22;42608;52.776;6.968;2024-01-30T06:29:36;6.60;99.90
56725;DHT22;42608;52.776;6.968;2024-01-30T06:32:07;6.60;99.90
56725;DHT22;42608;52.776;6.968;2024-01-30T06:34:33;6.60;99.90
56725;DHT22;42608;52.776;6.968;2024-01-30T06:36:59;6.50;99.90
56725;DHT22;42608;52.776;6.968;2024-01-30T06:39:24;6.60;99.90
56725;DHT22;42608;52.776;6.968;2024-01-30T06:41:50;6.60;99.90
56725;DHT22;42608;52.776;6.968;2024-01-30T06:44:18;6.70;99.90
56725;DHT22;42608;52.776;6.968;2024-01-30T06:46:44;6.70;99.90
56725;DHT22;42608;52.776;6.968;2024-01-30T06:49:09;6.70;99.90
56725;DHT22;42608;52.776;6.968;2024-01-30T06:51:35;6.70;99.90
56725;DHT22;42608;52.776;6.968;2024-01-30T06:54:02;6.70;99.90
56725;DHT22;42608;52.776;6.968;2024-01-30T06:56:28;6.80;99.90
56725;DHT22;42608;52.776;6.968;2024-01-30T06:58:53;6.80;99.90
56725;DHT22;42608;52.776;6.968;2024-01-30T07:01:19;6.80;99.90
56725;DHT22;42608;52.776;6.968;2024-01-30T07:03:46;6.80;99.90
56725;DHT22;42608;52.776;6.968;2024-01-30T07:06:12;6.80;99.90
56725;DHT22;42608;52.776;6.968;2024-01-30T07:08:40;6.90;99.90
56725;DHT22;42608;52.776;6.968;2024-01-30T07:11:06;6.90;99.90
56725;DHT22;42608;52.776;6.968;2024-01-30T07:13:32;7.00;99.90
56725;DHT22;42608;52.776;6.968;2024-01-30T07:15:57;7.00;99.90
56725;DHT22;42608;52.776;6.968;2024-01-30T07:18:25;7.00;99.90
56725;DHT22;42608;52.776;6.968;2024-01-30T07:20:51;7.10;99.90
56725;DHT22;42608;52.776;6.968;2024-01-30T07:23:17;7.10;99.90
56725;DHT22;42608;52.776;6.968;2024-01-30T07:25:46;7.20;99.90
56725;DHT22;42608;52.776;6.968;2024-01-30T07:28:14;7.20;99.90
56725;DHT22;42608;52.776;6.968;2024-01-30T07:30:42;7.30;99.90
56725;DHT22;42608;52.776;6.968;2024-01-30T07:33:08;7.40;99.90
56725;DHT22;42608;52.776;6.968;2024-01-30T07:35:34;7.40;99.90
56725;DHT22;42608;52.776;6.968;2024-01-30T07:38:00;7.50;99.90
56725;DHT22;42608;52.776;6.968;2024-01-30T07:40:25;7.50;99.90
56725;DHT22;42608;52.776;6.968;2024-01-30T07:42:52;7.60;99.90
56725;DHT22;42608;52.776;6.968;2024-01-30T07:45:18;7.60;99.90
56725;DHT22;42608;52.776;6.968;2024-01-30T07:47:50;7.70;99.90
56725;DHT22;42608;52.776;6.968;2024-01-30T07:50:16;7.70;99.90
56725;DHT22;42608;52.776;6.968;2024-01-30T07:52:42;7.70;99.90
56725;DHT22;42608;52.776;6.968;2024-01-30T07:55:11;7.80;99.90
56725;DHT22;42608;52.776;6.968;2024-01-30T07:57:47;7.80;99.90
56725;DHT22;42608;52.776;6.968;2024-01-30T08:00:13;7.80;99.90
56725;DHT22;42608;52.776;6.968;2024-01-30T08:02:38;7.90;99.90
56725;DHT22;42608;52.776;6.968;2024-01-30T08:05:04;7.90;99.90
56725;DHT22;42608;52.776;6.968;2024-01-30T08:07:30;7.90;99.90
56725;DHT22;42608;52.776;6.968;2024-01-30T08:09:55;7.90;99.90
56725;DHT22;42608;52.776;6.968;2024-01-30T08:12:21;7.90;99.90
56725;DHT22;42608;52.776;6.968;2024-01-30T08:14:47;7.90;99.90
56725;DHT22;42608;52.776;6.968;2024-01-30T08:17:12;8.00;99.90
56725;DHT22;42608;52.776;6.968;2024-01-30T08:19:38;8.00;99.90
56725;DHT22;42608;52.776;6.968;2024-01-30T08:22:03;8.00;99.90
56725;DHT22;42608;52.776;6.968;2024-01-30T08:24:29;8.00;99.90
56725;DHT22;42608;52.776;6.968;2024-01-30T08:26:54;8.10;99.90
56725;DHT22;42608;52.776;6.968;2024-01-30T08:29:20;8.10;99.90
56725;DHT22;42608;52.776;6.968;2024-01-30T08:31:46;8.20;99.90
56725;DHT22;42608;52.776;6.968;2024-01-30T08:34:11;8.20;99.90
56725;DHT22;42608;52.776;6.968;2024-01-30T08:36:40;8.20;99.90
56725;DHT22;42608;52.776;6.968;2024-01-30T08:39:05;8.20;99.90
56725;DHT22;42608;52.776;6.968;2024-01-30T08:41:31;8.30;99.90
56725;DHT22;42608;52.776;6.968;2024-01-30T08:43:56;8.30;99.90
56725;DHT22;42608;52.776;6.968;2024-01-30T08:46:22;8.30;99.90
56725;DHT22;42608;52.776;6.968;2024-01-30T08:48:48;8.40;99.90
56725;DHT22;42608;52.776;6.968;2024-01-30T08:51:13;8.40;99.90
56725;DHT22;42608;52.776;6.968;2024-01-30T08:53:40;8.40;99.90
56725;DHT22;42608;52.776;6.968;2024-01-30T08:56:06;8.50;99.90
56725;DHT22;42608;52.776;6.968;2024-01-30T08:58:32;8.50;99.90
56725;DHT22;42608;52.776;6.968;2024-01-30T09:00:58;8.50;99.90
56725;DHT22;42608;52.776;6.968;2024-01-30T09:03:23;8.50;99.90
56725;DHT22;42608;52.776;6.968;2024-01-30T09:05:49;8.60;99.90
56725;DHT22;42608;52.776;6.968;2024-01-30T09:08:15;8.60;99.90
56725;DHT22;42608;52.776;6.968;2024-01-30T09:10:40;8.70;99.90
56725;DHT22;42608;52.776;6.968;2024-01-30T09:13:06;8.70;99.90
56725;DHT22;42608;52.776;6.968;2024-01-30T09:15:32;8.70;99.90
56725;DHT22;42608;52.776;6.968;2024-01-30T09:18:01;8.70;99.90
56725;DHT22;42608;52.776;6.968;2024-01-30T09:20:26;8.70;99.90
56725;DHT22;42608;52.776;6.968;2024-01-30T09:22:52;8.80;99.90
56725;DHT22;42608;52.776;6.968;2024-01-30T09:25:17;8.80;99.90
56725;DHT22;42608;52.776;6.968;2024-01-30T09:27:44;8.90;99.90
56725;DHT22;42608;52.776;6.968;2024-01-30T09:30:09;8.90;99.90
56725;DHT22;42608;52.776;6.968;2024-01-30T09:32:35;8.90;99.90
56725;DHT22;42608;52.776;6.968;2024-01-30T09:35:00;8.90;99.90
56725;DHT22;42608;52.776;6.968;2024-01-30T09:37:26;9.00;99.90
56725;DHT22;42608;52.776;6.968;2024-01-30T09:39:52;9.00;99.90
56725;DHT22;42608;52.776;6.968;2024-01-30T09:42:36;9.00;99.90
56725;DHT22;42608;52.776;6.968;2024-01-30T09:45:02;9.00;99.90
56725;DHT22;42608;52.776;6.968;2024-01-30T09:47:30;9.00;99.90
56725;DHT22;42608;52.776;6.968;2024-01-30T09:49:56;9.10;99.90
56725;DHT22;42608;52.776;6.968;2024-01-30T09:52:22;9.10;99.90
56725;DHT22;42608;52.776;6.968;2024-01-30T09:54:47;9.20;99.90
56725;DHT22;42608;52.776;6.968;2024-01-30T09:57:14;9.20;99.90
56725;DHT22;42608;52.776;6.968;2024-01-30T09:59:41;9.20;99.90
56725;DHT22;42608;52.776;6.968;2024-01-30T10:02:07;9.30;99.90
56725;DHT22;42608;52.776;6.968;2024-01-30T10:04:32;9.30;99.90
56725;DHT22;42608;52.776;6.968;2024-01-30T10:06:59;9.30;99.90
56725;DHT22;42608;52.776;6.968;2024-01-30T10:09:25;9.40;99.90
56725;DHT22;42608;52.776;6.968;2024-01-30T10:11:53;9.40;99.90
56725;DHT22;42608;52.776;6.968;2024-01-30T10:14:19;9.40;99.90
56725;DHT22;42608;52.776;6.968;2024-01-30T10:16:45;9.40;99.90
56725;DHT22;42608;52.776;6.968;2024-01-30T10:19:11;9.50;99.90
56725;DHT22;42608;52.776;6.968;2024-01-30T10:21:37;9.50;99.90
56725;DHT22;42608;52.776;6.968;2024-01-30T10:24:02;9.50;99.90
56725;DHT22;42608;52.776;6.968;2024-01-30T10:26:28;9.60;99.90
56725;DHT22;42608;52.776;6.968;2024-01-30T10:28:55;9.60;99.90
56725;DHT22;42608;52.776;6.968;2024-01-30T10:31:23;9.60;99.90
56725;DHT22;42608;52.776;6.968;2024-01-30T10:33:49;9.60;99.90
56725;DHT22;42608;52.776;6.968;2024-01-30T10:36:15;9.60;99.90
56725;DHT22;42608;52.776;6.968;2024-01-30T10:38:44;9.70;99.90
56725;DHT22;42608;52.776;6.968;2024-01-30T10:41:12;9.70;99.90
56725;DHT22;42608;52.776;6.968;2024-01-30T10:43:42;9.70;99.90
56725;DHT22;42608;52.776;6.968;2024-01-30T10:46:18;9.70;99.90
56725;DHT22;42608;52.776;6.968;2024-01-30T10:48:46;9.70;99.90
56725;DHT22;42608;52.776;6.968;2024-01-30T10:51:14;9.80;99.90
56725;DHT22;42608;52.776;6.968;2024-01-30T10:53:40;9.80;99.90
56725;DHT22;42608;52.776;6.968;2024-01-30T10:56:06;9.80;99.90
56725;DHT22;42608;52.776;6.968;2024-01-30T10:58:33;9.90;99.90
56725;DHT22;42608;52.776;6.968;2024-01-30T11:00:59;9.90;99.90
56725;DHT22;42608;52.776;6.968;2024-01-30T11:03:24;9.90;99.90
56725;DHT22;42608;52.776;6.968;2024-01-30T11:05:50;9.90;99.90
56725;DHT22;42608;52.776;6.968;2024-01-30T11:08:25;9.90;99.90
56725;DHT22;42608;52.776;6.968;2024-01-30T11:10:56;10.00;99.90
56725;DHT22;42608;52.776;6.968;2024-01-30T11:13:31;10.00;99.90
56725;DHT22;42608;52.776;6.968;2024-01-30T11:16:00;10.00;99.90
56725;DHT22;42608;52.776;6.968;2024-01-30T11:18:30;10.00;99.90
56725;DHT22;42608;52.776;6.968;2024-01-30T11:21:01;10.10;99.90
56725;DHT22;42608;52.776;6.968;2024-01-30T11:23:27;10.10;99.90
56725;DHT22;42608;52.776;6.968;2024-01-30T11:25:53;10.10;99.90
56725;DHT22;42608;52.776;6.968;2024-01-30T11:28:21;10.10;99.90
56725;DHT22;42608;52.776;6.968;2024-01-30T11:30:47;10.10;99.90
56725;DHT22;42608;52.776;6.968;2024-01-30T11:33:15;10.10;99.90
56725;DHT22;42608;52.776;6.968;2024-01-30T11:35:42;10.20;99.90
56725;DHT22;42608;52.776;6.968;2024-01-30T11:38:08;10.20;99.90
56725;DHT22;42608;52.776;6.968;2024-01-30T11:40:34;10.20;99.90
56725;DHT22;42608;52.776;6.968;2024-01-30T11:43:00;10.20;99.90
56725;DHT22;42608;52.776;6.968;2024-01-30T11:45:27;10.20;99.90
56725;DHT22;42608;52.776;6.968;2024-01-30T11:47:55;10.20;99.90
56725;DHT22;42608;52.776;6.968;2024-01-30T11:50:21;10.30;99.90
56725;DHT22;42608;52.776;6.968;2024-01-30T11:52:47;10.30;99.90
56725;DHT22;42608;52.776;6.968;2024-01-30T11:55:13;10.40;99.90
56725;DHT22;42608;52.776;6.968;2024-01-30T11:57:39;10.30;99.90
56725;DHT22;42608;52.776;6.968;2024-01-30T12:00:22;10.40;99.90
56725;DHT22;42608;52.776;6.968;2024-01-30T12:02:51;10.40;99.90
56725;DHT22;42608;52.776;6.968;2024-01-30T12:05:24;10.50;99.90
56725;DHT22;42608;52.776;6.968;2024-01-30T12:07:50;10.50;99.90
56725;DHT22;42608;52.776;6.968;2024-01-30T12:10:16;10.50;99.90
56725;DHT22;42608;52.776;6.968;2024-01-30T12:12:42;10.50;99.90
56725;DHT22;42608;52.776;6.968;2024-01-30T12:15:08;10.50;99.90
56725;DHT22;42608;52.776;6.968;2024-01-30T12:17:34;10.60;99.90
56725;DHT22;42608;52.776;6.968;2024-01-30T12:20:06;10.60;99.90
56725;DHT22;42608;52.776;6.968;2024-01-30T12:22:41;10.60;99.90
56725;DHT22;42608;52.776;6.968;2024-01-30T12:25:11;10.60;99.90
56725;DHT22;42608;52.776;6.968;2024-01-30T12:27:37;10.60;99.90
56725;DHT22;42608;52.776;6.968;2024-01-30T12:30:06;10.60;99.90
56725;DHT22;42608;52.776;6.968;2024-01-30T12:32:36;10.70;99.90
56725;DHT22;42608;52.776;6.968;2024-01-30T12:35:02;10.70;99.90
56725;DHT22;42608;52.776;6.968;2024-01-30T12:37:27;10.70;99.90
56725;DHT22;42608;52.776;6.968;2024-01-30T12:39:54;10.80;99.90
56725;DHT22;42608;52.776;6.968;2024-01-30T12:42:20;10.80;99.90
56725;DHT22;42608;52.776;6.968;2024-01-30T12:44:49;10.80;99.90
56725;DHT22;42608;52.776;6.968;2024-01-30T12:47:15;10.90;99.90
56725;DHT22;42608;52.776;6.968;2024-01-30T12:49:42;11.00;99.90
56725;DHT22;42608;52.776;6.968;2024-01-30T12:52:08;11.00;99.90
56725;DHT22;42608;52.776;6.968;2024-01-30T12:54:34;11.10;99.90
56725;DHT22;42608;52.776;6.968;2024-01-30T12:56:59;11.10;99.90
56725;DHT22;42608;52.776;6.968;2024-01-30T12:59:25;11.10;99.90
56725;DHT22;42608;52.776;6.968;2024-01-30T13:01:50;11.10;99.90
56725;DHT22;42608;52.776;6.968;2024-01-30T13:04:16;11.20;99.90
56725;DHT22;42608;52.776;6.968;2024-01-30T13:06:42;11.10;99.90
56725;DHT22;42608;52.776;6.968;2024-01-30T13:09:07;11.10;99.90
56725;DHT22;42608;52.776;6.968;2024-01-30T13:11:33;11.20;99.90
56725;DHT22;42608;52.776;6.968;2024-01-30T13:13:58;11.20;99.90
56725;DHT22;42608;52.776;6.968;2024-01-30T13:16:24;11.20;99.90
56725;DHT22;42608;52.776;6.968;2024-01-30T13:18:49;11.20;99.90
56725;DHT22;42608;52.776;6.968;2024-01-30T13:21:15;11.10;99.90
56725;DHT22;42608;52.776;6.968;2024-01-30T13:23:40;11.10;99.90
56725;DHT22;42608;52.776;6.968;2024-01-30T13:26:06;11.10;99.90
56725;DHT22;42608;52.776;6.968;2024-01-30T13:28:32;11.10;99.90
56725;DHT22;42608;52.776;6.968;2024-01-30T13:30:58;11.10;99.90
56725;DHT22;42608;52.776;6.968;2024-01-30T13:33:24;11.10;99.90
56725;DHT22;42608;52.776;6.968;2024-01-30T13:35:50;11.00;99.90
56725;DHT22;42608;52.776;6.968;2024-01-30T13:38:15;11.00;99.90
56725;DHT22;42608;52.776;6.968;2024-01-30T13:40:44;10.90;99.90
56725;DHT22;42608;52.776;6.968;2024-01-30T13:43:09;10.90;99.90
56725;DHT22;42608;52.776;6.968;2024-01-30T13:45:35;10.80;99.90
56725;DHT22;42608;52.776;6.968;2024-01-30T13:48:08;10.80;99.90
56725;DHT22;42608;52.776;6.968;2024-01-30T13:50:33;10.70;99.90
56725;DHT22;42608;52.776;6.968;2024-01-30T13:52:59;10.70;99.90
56725;DHT22;42608;52.776;6.968;2024-01-30T13:55:24;10.70;99.90
56725;DHT22;42608;52.776;6.968;2024-01-30T13:57:50;10.70;99.90
56725;DHT22;42608;52.776;6.968;2024-01-30T14:00:16;10.70;99.90
56725;DHT22;42608;52.776;6.968;2024-01-30T14:02:42;10.70;99.90
56725;DHT22;42608;52.776;6.968;2024-01-30T14:05:10;10.60;99.90
56725;DHT22;42608;52.776;6.968;2024-01-30T14:07:36;10.60;99.90
56725;DHT22;42608;52.776;6.968;2024-01-30T14:10:09;10.50;99.90
56725;DHT22;42608;52.776;6.968;2024-01-30T14:12:36;10.60;99.90
56725;DHT22;42608;52.776;6.968;2024-01-30T14:15:01;10.50;99.90
56725;DHT22;42608;52.776;6.968;2024-01-30T14:17:30;10.50;99.90
56725;DHT22;42608;52.776;6.968;2024-01-30T14:19:55;10.50;99.90
56725;DHT22;42608;52.776;6.968;2024-01-30T14:22:21;10.40;99.90
56725;DHT22;42608;52.776;6.968;2024-01-30T14:24:47;10.40;99.90
56725;DHT22;42608;52.776;6.968;2024-01-30T14:27:15;10.30;99.90
56725;DHT22;42608;52.776;6.968;2024-01-30T14:29:41;10.30;99.90
56725;DHT22;42608;52.776;6.968;2024-01-30T14:32:08;10.30;99.90
56725;DHT22;42608;52.776;6.968;2024-01-30T14:34:34;10.20;99.90
56725;DHT22;42608;52.776;6.968;2024-01-30T14:37:00;10.20;99.90
56725;DHT22;42608;52.776;6.968;2024-01-30T14:39:26;10.10;99.90
56725;DHT22;42608;52.776;6.968;2024-01-30T14:41:51;10.10;99.90
56725;DHT22;42608;52.776;6.968;2024-01-30T14:44:17;10.10;99.90
56725;DHT22;42608;52.776;6.968;2024-01-30T14:46:43;10.10;99.90
56725;DHT22;42608;52.776;6.968;2024-01-30T14:49:09;10.10;99.90
56725;DHT22;42608;52.776;6.968;2024-01-30T14:51:35;10.10;99.90
56725;DHT22;42608;52.776;6.968;2024-01-30T14:54:05;10.00;99.90
56725;DHT22;42608;52.776;6.968;2024-01-30T14:56:30;10.00;99.90
56725;DHT22;42608;52.776;6.968;2024-01-30T14:58:56;10.00;99.90
56725;DHT22;42608;52.776;6.968;2024-01-30T15:01:24;10.00;99.90
56725;DHT22;42608;52.776;6.968;2024-01-30T15:03:50;10.00;99.90
56725;DHT22;42608;52.776;6.968;2024-01-30T15:06:20;10.00;99.90
56725;DHT22;42608;52.776;6.968;2024-01-30T15:08:49;9.90;99.90
56725;DHT22;42608;52.776;6.968;2024-01-30T15:11:15;10.00;99.90
56725;DHT22;42608;52.776;6.968;2024-01-30T15:13:44;10.00;99.90
56725;DHT22;42608;52.776;6.968;2024-01-30T15:16:09;9.90;99.90
56725;DHT22;42608;52.776;6.968;2024-01-30T15:18:40;9.90;99.90
56725;DHT22;42608;52.776;6.968;2024-01-30T15:21:06;9.90;99.90
56725;DHT22;42608;52.776;6.968;2024-01-30T15:23:32;9.90;99.90
56725;DHT22;42608;52.776;6.968;2024-01-30T15:25:57;9.90;99.90
56725;DHT22;42608;52.776;6.968;2024-01-30T15:28:33;9.90;99.90
56725;DHT22;42608;52.776;6.968;2024-01-30T15:31:00;9.90;99.90
56725;DHT22;42608;52.776;6.968;2024-01-30T15:33:27;9.80;99.90
56725;DHT22;42608;52.776;6.968;2024-01-30T15:35:52;9.80;99.90
56725;DHT22;42608;52.776;6.968;2024-01-30T15:38:18;9.70;99.90